sensor_id;sensor_type;location;lat;lon;timestamp;pressure;altitude;pressure_sealevel;temperature;humidity
47738;BME280;33502;47.182;27.506;2023-02-04T00:00:45;99700.78;;;-3.14;100.00
47738;BME280;33502;47.182;27.506;2023-02-04T00:03:15;99707.69;;;-3.10;100.00
47738;BME280;33502;47.182;27.506;2023-02-04T00:05:42;99706.00;;;-3.09;100.00
47738;BME280;33502;47.182;27.506;2023-02-04T00:08:07;99704.25;;;-3.07;100.00
47738;BME280;33502;47.182;27.506;2023-02-04T00:10:33;99703.41;;;-3.03;100.00
47738;BME280;33502;47.182;27.506;2023-02-04T00:12:59;99696.50;;;-3.01;100.00
47738;BME280;33502;47.182;27.506;2023-02-04T00:15:25;99694.75;;;-3.02;100.00
47738;BME280;33502;47.182;27.506;2023-02-04T00:17:50;99686.09;;;-3.06;100.00
47738;BME280;33502;47.182;27.506;2023-02-04T00:20:16;99689.56;;;-3.10;100.00
47738;BME280;33502;47.182;27.506;2023-02-04T00:22:42;99692.16;;;-3.15;100.00
47738;BME280;33502;47.182;27.506;2023-02-04T00:25:08;99680.06;;;-3.19;100.00
47738;BME280;33502;47.182;27.506;2023-02-04T00:27:34;99683.47;;;-3.21;100.00
47738;BME280;33502;47.182;27.506;2023-02-04T00:29:59;99685.22;;;-3.23;100.00
47738;BME280;33502;47.182;27.506;2023-02-04T00:32:25;99689.53;;;-3.25;100.00
47738;BME280;33502;47.182;27.506;2023-02-04T00:34:52;99678.28;;;-3.29;100.00
47738;BME280;33502;47.182;27.506;2023-02-04T00:37:18;99680.00;;;-3.31;100.00
47738;BME280;33502;47.182;27.506;2023-02-04T00:39:44;99676.56;;;-3.31;100.00
47738;BME280;33502;47.182;27.506;2023-02-04T00:42:09;99665.31;;;-3.35;100.00
47738;BME280;33502;47.182;27.506;2023-02-04T00:44:35;99661.91;;;-3.34;100.00
47738;BME280;33502;47.182;27.506;2023-02-04T00:47:01;99654.97;;;-3.37;100.00
47738;BME280;33502;47.182;27.506;2023-02-04T00:49:28;99650.66;;;-3.39;100.00
47738;BME280;33502;47.182;27.506;2023-02-04T00:51:55;99655.84;;;-3.38;100.00
47738;BME280;33502;47.182;27.506;2023-02-04T00:54:20;99639.44;;;-3.40;100.00
47738;BME280;33502;47.182;27.506;2023-02-04T00:56:46;99635.97;;;-3.39;100.00
47738;BME280;33502;47.182;27.506;2023-02-04T00:59:11;99642.00;;;-3.37;100.00
47738;BME280;33502;47.182;27.506;2023-02-04T01:01:37;99630.78;;;-3.39;100.00
47738;BME280;33502;47.182;27.506;2023-02-04T01:04:03;99633.41;;;-3.42;100.00
47738;BME280;33502;47.182;27.506;2023-02-04T01:06:29;99625.63;;;-3.45;100.00
47738;BME280;33502;47.182;27.506;2023-02-04T01:08:54;99618.69;;;-3.46;100.00
47738;BME280;33502;47.182;27.506;2023-02-04T01:11:21;99626.47;;;-3.47;100.00
47738;BME280;33502;47.182;27.506;2023-02-04T01:13:47;99625.59;;;-3.51;100.00
47738;BME280;33502;47.182;27.506;2023-02-04T01:16:13;99621.25;;;-3.54;100.00
47738;BME280;33502;47.182;27.506;2023-02-04T01:18:38;99612.66;;;-3.57;100.00
47738;BME280;33502;47.182;27.506;2023-02-04T01:21:04;99619.53;;;-3.56;100.00
47738;BME280;33502;47.182;27.506;2023-02-04T01:23:30;99616.94;;;-3.56;100.00
47738;BME280;33502;47.182;27.506;2023-02-04T01:25:56;99620.38;;;-3.56;100.00
47738;BME280;33502;47.182;27.506;2023-02-04T01:28:22;99617.84;;;-3.51;100.00
47738;BME280;33502;47.182;27.506;2023-02-04T01:30:47;99616.09;;;-3.50;100.00
47738;BME280;33502;47.182;27.506;2023-02-04T01:33:13;99606.59;;;-3.50;100.00
47738;BME280;33502;47.182;27.506;2023-02-04T01:35:39;99611.78;;;-3.50;100.00
47738;BME280;33502;47.182;27.506;2023-02-04T01:38:04;99601.44;;;-3.50;100.00
47738;BME280;33502;47.182;27.506;2023-02-04T01:40:30;99607.47;;;-3.46;100.00
47738;BME280;33502;47.182;27.506;2023-02-04T01:42:56;99601.44;;;-3.47;100.00
47738;BME280;33502;47.182;27.506;2023-02-04T01:45:22;99593.69;;;-3.45;100.00
47738;BME280;33502;47.182;27.506;2023-02-04T01:47:48;99588.53;;;-3.45;100.00
47738;BME280;33502;47.182;27.506;2023-02-04T01:50:14;99596.28;;;-3.44;100.00
47738;BME280;33502;47.182;27.506;2023-02-04T01:52:41;99597.13;;;-3.46;100.00
47738;BME280;33502;47.182;27.506;2023-02-04T01:55:15;99599.72;;;-3.48;100.00
47738;BME280;33502;47.182;27.506;2023-02-04T01:57:41;99599.72;;;-3.51;100.00
47738;BME280;33502;47.182;27.506;2023-02-04T02:00:17;99594.56;;;-3.49;100.00
47738;BME280;33502;47.182;27.506;2023-02-04T02:02:47;99592.81;;;-3.49;100.00
47738;BME280;33502;47.182;27.506;2023-02-04T02:05:16;99587.63;;;-3.52;100.00
47738;BME280;33502;47.182;27.506;2023-02-04T02:07:42;99592.81;;;-3.55;100.00
47738;BME280;33502;47.182;27.506;2023-02-04T02:10:09;99585.91;;;-3.59;100.00
47738;BME280;33502;47.182;27.506;2023-02-04T02:12:35;99594.50;;;-3.60;100.00
47738;BME280;33502;47.182;27.506;2023-02-04T02:15:01;99594.50;;;-3.60;100.00
47738;BME280;33502;47.182;27.506;2023-02-04T02:17:27;99586.75;;;-3.60;100.00
47738;BME280;33502;47.182;27.506;2023-02-04T02:19:53;99588.50;;;-3.59;100.00
47738;BME280;33502;47.182;27.506;2023-02-04T02:22:26;99584.16;;;-3.56;100.00
47738;BME280;33502;47.182;27.506;2023-02-04T02:24:53;99579.00;;;-3.52;100.00
47738;BME280;33502;47.182;27.506;2023-02-04T02:27:18;99577.28;;;-3.49;100.00
47738;BME280;33502;47.182;27.506;2023-02-04T02:29:44;99566.94;;;-3.47;100.00
47738;BME280;33502;47.182;27.506;2023-02-04T02:32:10;99570.38;;;-3.47;100.00
47738;BME280;33502;47.182;27.506;2023-02-04T02:34:36;99575.56;;;-3.47;100.00
47738;BME280;33502;47.182;27.506;2023-02-04T02:37:03;99574.69;;;-3.46;100.00
47738;BME280;33502;47.182;27.506;2023-02-04T02:39:30;99566.94;;;-3.41;100.00
47738;BME280;33502;47.182;27.506;2023-02-04T02:41:56;99578.19;;;-3.36;100.00
47738;BME280;33502;47.182;27.506;2023-02-04T02:44:23;99580.78;;;-3.30;100.00
47738;BME280;33502;47.182;27.506;2023-02-04T02:46:49;99576.47;;;-3.25;100.00
47738;BME280;33502;47.182;27.506;2023-02-04T02:49:15;99575.63;;;-3.21;100.00
47738;BME280;33502;47.182;27.506;2023-02-04T02:51:42;99575.63;;;-3.15;100.00
47738;BME280;33502;47.182;27.506;2023-02-04T02:57:14;99574.75;;;-3.09;100.00
47738;BME280;33502;47.182;27.506;2023-02-04T02:59:41;99578.22;;;-3.07;100.00
47738;BME280;33502;47.182;27.506;2023-02-04T03:02:07;99579.94;;;-3.07;100.00
47738;BME280;33502;47.182;27.506;2023-02-04T03:04:36;99575.63;;;-3.08;100.00
47738;BME280;33502;47.182;27.506;2023-02-04T03:07:03;99574.75;;;-3.09;100.00
47738;BME280;33502;47.182;27.506;2023-02-04T03:09:29;99573.91;;;-3.09;100.00
47738;BME280;33502;47.182;27.506;2023-02-04T03:11:54;99569.56;;;-3.09;100.00
47738;BME280;33502;47.182;27.506;2023-02-04T03:14:20;99574.75;;;-3.09;100.00
47738;BME280;33502;47.182;27.506;2023-02-04T03:16:47;99580.78;;;-3.10;100.00
47738;BME280;33502;47.182;27.506;2023-02-04T03:19:13;99578.19;;;-3.10;100.00
47738;BME280;33502;47.182;27.506;2023-02-04T03:21:39;99576.47;;;-3.11;100.00
47738;BME280;33502;47.182;27.506;2023-02-04T03:24:05;99582.53;;;-3.10;100.00
47738;BME280;33502;47.182;27.506;2023-02-04T03:26:31;99574.75;;;-3.10;100.00
47738;BME280;33502;47.182;27.506;2023-02-04T03:28:57;99578.19;;;-3.10;100.00
47738;BME280;33502;47.182;27.506;2023-02-04T03:31:23;99577.34;;;-3.09;100.00
47738;BME280;33502;47.182;27.506;2023-02-04T03:33:49;99579.09;;;-3.09;100.00
47738;BME280;33502;47.182;27.506;2023-02-04T03:36:15;99579.09;;;-3.09;100.00
47738;BME280;33502;47.182;27.506;2023-02-04T03:38:41;99568.72;;;-3.11;100.00
47738;BME280;33502;47.182;27.506;2023-02-04T03:41:06;99570.44;;;-3.13;100.00
47738;BME280;33502;47.182;27.506;2023-02-04T03:43:32;99573.03;;;-3.15;100.00
47738;BME280;33502;47.182;27.506;2023-02-04T03:45:58;99573.91;;;-3.17;100.00
47738;BME280;33502;47.182;27.506;2023-02-04T03:48:23;99571.31;;;-3.19;100.00
47738;BME280;33502;47.182;27.506;2023-02-04T03:50:49;99570.44;;;-3.21;100.00
47738;BME280;33502;47.182;27.506;2023-02-04T03:53:14;99572.16;;;-3.23;100.00
47738;BME280;33502;47.182;27.506;2023-02-04T03:55:40;99577.34;;;-3.24;100.00
47738;BME280;33502;47.182;27.506;2023-02-04T03:58:05;99567.84;;;-3.28;100.00
47738;BME280;33502;47.182;27.506;2023-02-04T04:00:31;99570.41;;;-3.31;100.00
47738;BME280;33502;47.182;27.506;2023-02-04T04:02:57;99570.41;;;-3.35;100.00
47738;BME280;33502;47.182;27.506;2023-02-04T04:05:23;99573.00;;;-3.38;100.00
47738;BME280;33502;47.182;27.506;2023-02-04T04:07:48;99575.56;;;-3.41;100.00
47738;BME280;33502;47.182;27.506;2023-02-04T04:10:14;99568.69;;;-3.42;100.00
47738;BME280;33502;47.182;27.506;2023-02-04T04:12:40;99574.72;;;-3.41;100.00
47738;BME280;33502;47.182;27.506;2023-02-04T04:15:05;99573.88;;;-3.42;100.00
47738;BME280;33502;47.182;27.506;2023-02-04T04:17:31;99573.00;;;-3.45;100.00
47738;BME280;33502;47.182;27.506;2023-02-04T04:19:57;99573.84;;;-3.45;100.00
47738;BME280;33502;47.182;27.506;2023-02-04T04:22:22;99573.00;;;-3.45;100.00
47738;BME280;33502;47.182;27.506;2023-02-04T04:24:48;99577.28;;;-3.46;100.00
47738;BME280;33502;47.182;27.506;2023-02-04T04:27:13;99570.38;;;-3.47;100.00
47738;BME280;33502;47.182;27.506;2023-02-04T04:29:39;99573.00;;;-3.44;100.00
47738;BME280;33502;47.182;27.506;2023-02-04T04:32:04;99584.19;;;-3.43;100.00
47738;BME280;33502;47.182;27.506;2023-02-04T04:34:30;99580.75;;;-3.42;100.00
47738;BME280;33502;47.182;27.506;2023-02-04T04:36:56;99576.44;;;-3.39;100.00
47738;BME280;33502;47.182;27.506;2023-02-04T04:39:21;99583.38;;;-3.36;100.00
47738;BME280;33502;47.182;27.506;2023-02-04T04:41:47;99579.03;;;-3.36;100.00
47738;BME280;33502;47.182;27.506;2023-02-04T04:44:12;99581.63;;;-3.32;100.00
47738;BME280;33502;47.182;27.506;2023-02-04T04:46:38;99584.22;;;-3.29;100.00
47738;BME280;33502;47.182;27.506;2023-02-04T04:49:05;99580.75;;;-3.27;100.00
47738;BME280;33502;47.182;27.506;2023-02-04T04:51:30;99574.75;;;-3.26;100.00
47738;BME280;33502;47.182;27.506;2023-02-04T04:53:57;99571.28;;;-3.23;100.00
47738;BME280;33502;47.182;27.506;2023-02-04T04:56:22;99566.97;;;-3.23;100.00
47738;BME280;33502;47.182;27.506;2023-02-04T04:58:48;99570.44;;;-3.22;100.00
47738;BME280;33502;47.182;27.506;2023-02-04T05:01:13;99568.69;;;-3.20;100.00
47738;BME280;33502;47.182;27.506;2023-02-04T05:03:39;99573.88;;;-3.19;100.00
47738;BME280;33502;47.182;27.506;2023-02-04T05:06:04;99569.56;;;-3.17;100.00
47738;BME280;33502;47.182;27.506;2023-02-04T05:08:30;99579.91;;;-3.13;100.00
47738;BME280;33502;47.182;27.506;2023-02-04T05:10:56;99582.50;;;-3.12;100.00
47738;BME280;33502;47.182;27.506;2023-02-04T05:13:21;99585.97;;;-3.08;100.00
47738;BME280;33502;47.182;27.506;2023-02-04T05:15:49;99582.53;;;-3.09;100.00
47738;BME280;33502;47.182;27.506;2023-02-04T05:18:15;99579.91;;;-3.06;100.00
47738;BME280;33502;47.182;27.506;2023-02-04T05:20:40;99588.59;;;-3.04;100.00
47738;BME280;33502;47.182;27.506;2023-02-04T05:23:06;99584.25;;;-3.03;100.00
47738;BME280;33502;47.182;27.506;2023-02-04T05:25:31;99593.75;;;-3.02;100.00
47738;BME280;33502;47.182;27.506;2023-02-04T05:27:57;99598.94;;;-3.01;100.00
47738;BME280;33502;47.182;27.506;2023-02-04T05:30:22;99596.34;;;-3.01;100.00
47738;BME280;33502;47.182;27.506;2023-02-04T05:32:48;99608.44;;;-3.00;100.00
47738;BME280;33502;47.182;27.506;2023-02-04T05:35:14;99618.81;;;-3.00;100.00
47738;BME280;33502;47.182;27.506;2023-02-04T05:37:39;99609.28;;;-2.99;100.00
47738;BME280;33502;47.182;27.506;2023-02-04T05:40:05;99607.56;;;-2.99;100.00
47738;BME280;33502;47.182;27.506;2023-02-04T05:42:31;99608.44;;;-3.00;100.00
47738;BME280;33502;47.182;27.506;2023-02-04T05:44:56;99607.56;;;-3.00;100.00
47738;BME280;33502;47.182;27.506;2023-02-04T05:47:22;99623.09;;;-3.00;100.00
47738;BME280;33502;47.182;27.506;2023-02-04T05:49:47;99618.78;;;-3.03;100.00
47738;BME280;33502;47.182;27.506;2023-02-04T05:52:13;99618.78;;;-3.03;100.00
47738;BME280;33502;47.182;27.506;2023-02-04T05:54:39;99616.19;;;-3.03;100.00
47738;BME280;33502;47.182;27.506;2023-02-04T05:57:04;99616.19;;;-3.03;100.00
47738;BME280;33502;47.182;27.506;2023-02-04T05:59:30;99612.75;;;-3.03;100.00
47738;BME280;33502;47.182;27.506;2023-02-04T06:01:56;99615.34;;;-3.02;100.00
47738;BME280;33502;47.182;27.506;2023-02-04T06:04:21;99615.31;;;-3.00;100.00
47738;BME280;33502;47.182;27.506;2023-02-04T06:06:47;99605.84;;;-3.01;100.00
47738;BME280;33502;47.182;27.506;2023-02-04T06:09:12;99601.50;;;-3.02;100.00
47738;BME280;33502;47.182;27.506;2023-02-04T06:11:38;99607.56;;;-3.02;100.00
47738;BME280;33502;47.182;27.506;2023-02-04T06:14:03;99601.50;;;-3.02;100.00
47738;BME280;33502;47.182;27.506;2023-02-04T06:16:29;99605.00;;;-3.02;100.00
47738;BME280;33502;47.182;27.506;2023-02-04T06:18:55;99615.34;;;-3.02;100.00
47738;BME280;33502;47.182;27.506;2023-02-04T06:21:20;99617.06;;;-3.01;100.00
47738;BME280;33502;47.182;27.506;2023-02-04T06:23:46;99618.81;;;-3.00;100.00
47738;BME280;33502;47.182;27.506;2023-02-04T06:26:11;99615.34;;;-2.97;100.00
47738;BME280;33502;47.182;27.506;2023-02-04T06:28:37;99628.28;;;-2.92;100.00
47738;BME280;33502;47.182;27.506;2023-02-04T06:31:03;99630.88;;;-2.83;100.00
47738;BME280;33502;47.182;27.506;2023-02-04T06:33:28;99634.34;;;-2.69;100.00
47738;BME280;33502;47.182;27.506;2023-02-04T06:35:54;99638.66;;;-2.48;100.00
47738;BME280;33502;47.182;27.506;2023-02-04T06:38:19;99645.56;;;-2.28;100.00
47738;BME280;33502;47.182;27.506;2023-02-04T06:40:45;99653.25;;;-1.98;100.00
47738;BME280;33502;47.182;27.506;2023-02-04T06:43:18;99649.69;;;-1.58;100.00
47738;BME280;33502;47.182;27.506;2023-02-04T06:45:43;99653.78;;;-1.17;100.00
47738;BME280;33502;47.182;27.506;2023-02-04T06:48:09;99650.00;;;-0.70;100.00
47738;BME280;33502;47.182;27.506;2023-02-04T06:50:34;99640.69;;;0.01;100.00
47738;BME280;33502;47.182;27.506;2023-02-04T06:53:00;99645.06;;;0.71;100.00
47738;BME280;33502;47.182;27.506;2023-02-04T06:55:26;99657.91;;;0.85;100.00
47738;BME280;33502;47.182;27.506;2023-02-04T06:57:51;99658.91;;;0.76;100.00
47738;BME280;33502;47.182;27.506;2023-02-04T07:00:17;99655.53;;;0.67;100.00
47738;BME280;33502;47.182;27.506;2023-02-04T07:02:42;99659.25;;;0.47;100.00
47738;BME280;33502;47.182;27.506;2023-02-04T07:05:10;99658.69;;;0.21;100.00
47738;BME280;33502;47.182;27.506;2023-02-04T07:07:36;99652.78;;;0.08;100.00
47738;BME280;33502;47.182;27.506;2023-02-04T07:10:01;99658.84;;;0.08;100.00
47738;BME280;33502;47.182;27.506;2023-02-04T07:12:27;99658.50;;;0.36;100.00
47738;BME280;33502;47.182;27.506;2023-02-04T07:14:53;99655.59;;;0.62;100.00
47738;BME280;33502;47.182;27.506;2023-02-04T07:17:18;99658.81;;;0.81;100.00
47738;BME280;33502;47.182;27.506;2023-02-04T07:19:44;99663.22;;;1.38;100.00
47738;BME280;33502;47.182;27.506;2023-02-04T07:22:09;99653.25;;;2.53;100.00
47738;BME280;33502;47.182;27.506;2023-02-04T07:24:35;99657.69;;;3.29;100.00
47738;BME280;33502;47.182;27.506;2023-02-04T07:27:01;99661.91;;;2.98;100.00
47738;BME280;33502;47.182;27.506;2023-02-04T07:29:26;99662.84;;;2.54;100.00
47738;BME280;33502;47.182;27.506;2023-02-04T07:31:52;99670.56;;;2.14;100.00
47738;BME280;33502;47.182;27.506;2023-02-04T07:34:18;99677.00;;;1.96;100.00
47738;BME280;33502;47.182;27.506;2023-02-04T07:36:44;99676.28;;;1.89;100.00
47738;BME280;33502;47.182;27.506;2023-02-04T07:39:09;99681.78;;;2.21;100.00
47738;BME280;33502;47.182;27.506;2023-02-04T07:41:35;99670.28;;;2.73;100.00
47738;BME280;33502;47.182;27.506;2023-02-04T07:44:01;99674.97;;;2.57;100.00
47738;BME280;33502;47.182;27.506;2023-02-04T07:46:26;99679.56;;;2.01;100.00
47738;BME280;33502;47.182;27.506;2023-02-04T07:48:52;99681.94;;;1.62;100.00
47738;BME280;33502;47.182;27.506;2023-02-04T07:51:18;99686.66;;;1.40;100.00
47738;BME280;33502;47.182;27.506;2023-02-04T07:53:43;99683.31;;;1.30;100.00
47738;BME280;33502;47.182;27.506;2023-02-04T07:56:09;99689.59;;;1.16;100.00
47738;BME280;33502;47.182;27.506;2023-02-04T07:58:35;99697.50;;;1.12;100.00
47738;BME280;33502;47.182;27.506;2023-02-04T08:01:00;99689.75;;;1.07;100.00
47738;BME280;33502;47.182;27.506;2023-02-04T08:03:26;99689.78;;;1.04;100.00
47738;BME280;33502;47.182;27.506;2023-02-04T08:05:52;99695.81;;;1.08;100.00
47738;BME280;33502;47.182;27.506;2023-02-04T08:08:17;99695.13;;;0.93;100.00
47738;BME280;33502;47.182;27.506;2023-02-04T08:10:43;99700.41;;;0.90;100.00
47738;BME280;33502;47.182;27.506;2023-02-04T08:13:09;99697.91;;;0.81;100.00
47738;BME280;33502;47.182;27.506;2023-02-04T08:15:34;99691.03;;;0.75;100.00
47738;BME280;33502;47.182;27.506;2023-02-04T08:18:00;99698.78;;;0.80;100.00
47738;BME280;33502;47.182;27.506;2023-02-04T08:20:25;99706.47;;;0.92;100.00
47738;BME280;33502;47.182;27.506;2023-02-04T08:22:51;99698.63;;;0.92;100.00
47738;BME280;33502;47.182;27.506;2023-02-04T08:25:17;99712.63;;;0.85;100.00
47738;BME280;33502;47.182;27.506;2023-02-04T08:27:42;99709.94;;;0.90;100.00
47738;BME280;33502;47.182;27.506;2023-02-04T08:30:08;99706.56;;;0.86;100.00
47738;BME280;33502;47.182;27.506;2023-02-04T08:32:34;99709.22;;;0.80;100.00
47738;BME280;33502;47.182;27.506;2023-02-04T08:35:00;99713.38;;;0.93;100.00
47738;BME280;33502;47.182;27.506;2023-02-04T08:37:25;99704.56;;;1.05;100.00
47738;BME280;33502;47.182;27.506;2023-02-04T08:39:51;99709.56;;;1.19;100.00
47738;BME280;33502;47.182;27.506;2023-02-04T08:42:17;99717.50;;;1.13;100.00
47738;BME280;33502;47.182;27.506;2023-02-04T08:44:43;99713.13;;;1.13;100.00
47738;BME280;33502;47.182;27.506;2023-02-04T08:47:08;99712.13;;;1.22;100.00
47738;BME280;33502;47.182;27.506;2023-02-04T08:49:37;99714.69;;;1.25;100.00
47738;BME280;33502;47.182;27.506;2023-02-04T08:52:03;99715.50;;;1.30;100.00
47738;BME280;33502;47.182;27.506;2023-02-04T08:54:30;99712.78;;;1.38;100.00
47738;BME280;33502;47.182;27.506;2023-02-04T08:56:56;99720.47;;;1.46;100.00
47738;BME280;33502;47.182;27.506;2023-02-04T08:59:21;99721.25;;;1.51;100.00
47738;BME280;33502;47.182;27.506;2023-02-04T09:01:48;99729.03;;;1.55;100.00
47738;BME280;33502;47.182;27.506;2023-02-04T09:04:17;99719.41;;;1.59;100.00
47738;BME280;33502;47.182;27.506;2023-02-04T09:06:43;99723.00;;;1.52;100.00
47738;BME280;33502;47.182;27.506;2023-02-04T09:09:09;99722.97;;;1.53;100.00
47738;BME280;33502;47.182;27.506;2023-02-04T09:11:34;99724.50;;;1.68;100.00
47738;BME280;33502;47.182;27.506;2023-02-04T09:14:00;99727.75;;;1.80;100.00
47738;BME280;33502;47.182;27.506;2023-02-04T09:16:26;99729.53;;;1.77;100.00
47738;BME280;33502;47.182;27.506;2023-02-04T09:18:51;99734.41;;;2.01;100.00
47738;BME280;33502;47.182;27.506;2023-02-04T09:21:17;99731.22;;;2.31;100.00
47738;BME280;33502;47.182;27.506;2023-02-04T09:23:42;99734.25;;;2.55;100.00
47738;BME280;33502;47.182;27.506;2023-02-04T09:26:09;99732.03;;;2.79;100.00
47738;BME280;33502;47.182;27.506;2023-02-04T09:28:34;99738.34;;;3.12;100.00
47738;BME280;33502;47.182;27.506;2023-02-04T09:31:00;99744.09;;;3.26;100.00
47738;BME280;33502;47.182;27.506;2023-02-04T09:33:26;99734.88;;;3.10;100.00
47738;BME280;33502;47.182;27.506;2023-02-04T09:35:51;99741.97;;;3.05;100.00
47738;BME280;33502;47.182;27.506;2023-02-04T09:38:17;99735.72;;;3.12;100.00
47738;BME280;33502;47.182;27.506;2023-02-04T09:40:43;99727.38;;;2.94;100.00
47738;BME280;33502;47.182;27.506;2023-02-04T09:43:11;99739.19;;;3.12;100.00
47738;BME280;33502;47.182;27.506;2023-02-04T09:45:40;99730.94;;;3.31;100.00
47738;BME280;33502;47.182;27.506;2023-02-04T09:48:06;99729.56;;;3.13;100.00
47738;BME280;33502;47.182;27.506;2023-02-04T09:50:34;99730.78;;;2.98;100.00
47738;BME280;33502;47.182;27.506;2023-02-04T09:53:00;99736.25;;;2.86;100.00
47738;BME280;33502;47.182;27.506;2023-02-04T09:55:28;99735.38;;;2.87;100.00
47738;BME280;33502;47.182;27.506;2023-02-04T09:57:54;99738.84;;;3.28;100.00
47738;BME280;33502;47.182;27.506;2023-02-04T10:00:21;99737.31;;;3.57;100.00
47738;BME280;33502;47.182;27.506;2023-02-04T10:02:47;99737.31;;;3.57;100.00
47738;BME280;33502;47.182;27.506;2023-02-04T10:05:14;99734.00;;;3.86;100.00
47738;BME280;33502;47.182;27.506;2023-02-04T10:07:40;99739.84;;;3.61;100.00
47738;BME280;33502;47.182;27.506;2023-02-04T10:10:05;99746.13;;;3.54;100.00
47738;BME280;33502;47.182;27.506;2023-02-04T10:12:31;99748.06;;;3.46;100.00
47738;BME280;33502;47.182;27.506;2023-02-04T10:14:57;99745.84;;;3.27;100.00
47738;BME280;33502;47.182;27.506;2023-02-04T10:17:24;99747.69;;;3.22;100.00
47738;BME280;33502;47.182;27.506;2023-02-04T10:19:50;99751.38;;;3.52;100.00
47738;BME280;33502;47.182;27.506;2023-02-04T10:22:20;99746.34;;;3.81;100.00
47738;BME280;33502;47.182;27.506;2023-02-04T10:24:46;99748.22;;;3.76;100.00
47738;BME280;33502;47.182;27.506;2023-02-04T10:27:12;99758.13;;;3.63;100.00
47738;BME280;33502;47.182;27.506;2023-02-04T10:29:41;99755.50;;;3.63;100.00
47738;BME280;33502;47.182;27.506;2023-02-04T10:35:13;99769.81;;;3.48;100.00
47738;BME280;33502;47.182;27.506;2023-02-04T10:37:39;99764.63;;;3.06;100.00
47738;BME280;33502;47.182;27.506;2023-02-04T10:40:05;99765.97;;;2.82;100.00
47738;BME280;33502;47.182;27.506;2023-02-04T10:42:30;99775.59;;;2.80;100.00
47738;BME280;33502;47.182;27.506;2023-02-04T10:44:56;99765.97;;;2.83;100.00
47738;BME280;33502;47.182;27.506;2023-02-04T10:47:23;99770.75;;;3.05;100.00
47738;BME280;33502;47.182;27.506;2023-02-04T10:52:21;99782.88;;;3.07;100.00
47738;BME280;33502;47.182;27.506;2023-02-04T10:54:48;99784.69;;;3.04;100.00
47738;BME280;33502;47.182;27.506;2023-02-04T10:59:43;99793.59;;;2.95;100.00
47738;BME280;33502;47.182;27.506;2023-02-04T11:04:43;99798.69;;;3.43;100.00
47738;BME280;33502;47.182;27.506;2023-02-04T11:07:09;99798.38;;;3.57;100.00
47738;BME280;33502;47.182;27.506;2023-02-04T11:09:39;99805.47;;;3.53;100.00
47738;BME280;33502;47.182;27.506;2023-02-04T11:12:12;99812.69;;;3.42;100.00
47738;BME280;33502;47.182;27.506;2023-02-04T11:14:52;99815.41;;;3.38;100.00
47738;BME280;33502;47.182;27.506;2023-02-04T11:17:19;99820.31;;;3.11;100.00
47738;BME280;33502;47.182;27.506;2023-02-04T11:19:45;99819.97;;;3.28;100.00
47738;BME280;33502;47.182;27.506;2023-02-04T11:22:21;99823.56;;;3.22;100.00
47738;BME280;33502;47.182;27.506;2023-02-04T11:24:47;99833.47;;;3.08;100.00
47738;BME280;33502;47.182;27.506;2023-02-04T11:27:20;99829.25;;;2.99;100.00
47738;BME280;33502;47.182;27.506;2023-02-04T11:29:46;99836.13;;;3.05;100.00
47738;BME280;33502;47.182;27.506;2023-02-04T11:32:29;99836.84;;;3.13;100.00
47738;BME280;33502;47.182;27.506;2023-02-04T11:35:05;99838.50;;;3.17;100.00
47738;BME280;33502;47.182;27.506;2023-02-04T11:37:35;99834.88;;;3.23;100.00
47738;BME280;33502;47.182;27.506;2023-02-04T11:40:01;99831.09;;;3.38;100.00
47738;BME280;33502;47.182;27.506;2023-02-04T11:42:42;99830.03;;;3.48;100.00
47738;BME280;33502;47.182;27.506;2023-02-04T11:45:11;99837.56;;;3.62;100.00
47738;BME280;33502;47.182;27.506;2023-02-04T11:47:38;99829.97;;;3.90;100.00
47738;BME280;33502;47.182;27.506;2023-02-04T11:50:11;99834.09;;;4.36;100.00
47738;BME280;33502;47.182;27.506;2023-02-04T11:52:37;99836.38;;;4.48;100.00
47738;BME280;33502;47.182;27.506;2023-02-04T11:55:03;99840.81;;;4.10;99.03
47738;BME280;33502;47.182;27.506;2023-02-04T11:57:29;99849.53;;;3.73;100.00
47738;BME280;33502;47.182;27.506;2023-02-04T12:00:02;99850.63;;;3.63;100.00
47738;BME280;33502;47.182;27.506;2023-02-04T12:02:39;99849.44;;;3.36;100.00
47738;BME280;33502;47.182;27.506;2023-02-04T12:05:09;99851.34;;;3.29;100.00
47738;BME280;33502;47.182;27.506;2023-02-04T12:07:35;99859.25;;;3.25;100.00
47738;BME280;33502;47.182;27.506;2023-02-04T12:12:43;99859.53;;;3.12;100.00
47738;BME280;33502;47.182;27.506;2023-02-04T12:15:16;99870.09;;;3.08;100.00
47738;BME280;33502;47.182;27.506;2023-02-04T12:17:44;99866.88;;;2.93;100.00
47738;BME280;33502;47.182;27.506;2023-02-04T12:20:13;99874.97;;;2.80;100.00
47738;BME280;33502;47.182;27.506;2023-02-04T12:22:39;99880.34;;;2.72;100.00
47738;BME280;33502;47.182;27.506;2023-02-04T12:25:04;99884.84;;;2.64;100.00
47738;BME280;33502;47.182;27.506;2023-02-04T12:27:30;99891.81;;;2.63;100.00
47738;BME280;33502;47.182;27.506;2023-02-04T12:29:55;99888.34;;;2.63;100.00
47738;BME280;33502;47.182;27.506;2023-02-04T12:32:21;99894.50;;;2.60;100.00
47738;BME280;33502;47.182;27.506;2023-02-04T12:34:47;99898.97;;;2.52;100.00
47738;BME280;33502;47.182;27.506;2023-02-04T12:37:12;99899.16;;;2.41;100.00
47738;BME280;33502;47.182;27.506;2023-02-04T12:39:38;99907.06;;;2.37;100.00
47738;BME280;33502;47.182;27.506;2023-02-04T12:42:03;99907.06;;;2.37;100.00
47738;BME280;33502;47.182;27.506;2023-02-04T12:44:29;99915.78;;;2.37;100.00
47738;BME280;33502;47.182;27.506;2023-02-04T12:46:55;99912.38;;;2.32;100.00
47738;BME280;33502;47.182;27.506;2023-02-04T12:49:21;99918.53;;;2.26;100.00
47738;BME280;33502;47.182;27.506;2023-02-04T12:51:49;99918.66;;;2.20;100.00
47738;BME280;33502;47.182;27.506;2023-02-04T12:54:15;99926.47;;;2.22;100.00
47738;BME280;33502;47.182;27.506;2023-02-04T12:56:40;99923.88;;;2.19;100.00